createdAt,value
2017-09-25T00:01:38.875Z,87.97
2017-09-25T00:04:07.271Z,65.55
2017-09-25T00:06:36.306Z,34.30
2017-09-25T00:09:04.796Z,31.20
2017-09-25T00:11:33.234Z,21.70
2017-09-25T00:14:02.382Z,31.58
2017-09-25T00:16:30.863Z,25.30
2017-09-25T00:18:59.236Z,28.58
2017-09-25T00:21:27.618Z,24.98
2017-09-25T00:23:56.041Z,25.50
2017-09-25T00:26:25.433Z,34.75
2017-09-25T00:28:54.579Z,26.87
2017-09-25T00:31:23.075Z,24.37
2017-09-25T00:33:51.459Z,24.20
2017-09-25T00:36:19.871Z,31.08
2017-09-25T00:38:49.067Z,21.80
2017-09-25T00:41:17.473Z,22.37
2017-09-25T00:43:45.922Z,22.83
2017-09-25T00:46:15.287Z,25.20
2017-09-25T00:48:43.979Z,29.52
2017-09-25T00:51:12.920Z,20.58
2017-09-25T00:54:01.311Z,20.83
2017-09-25T00:56:29.866Z,19.08
2017-09-25T00:58:58.287Z,23.15
2017-09-25T01:01:44.662Z,18.77
2017-09-25T01:07:21.864Z,21.50
2017-09-25T01:09:50.361Z,17.52
2017-09-25T01:12:18.992Z,26.15
2017-09-25T01:14:48.258Z,22.35
2017-09-25T01:17:16.717Z,20.23
2017-09-25T01:19:45.157Z,16.80
2017-09-25T01:22:13.599Z,18.35
2017-09-25T01:24:42.020Z,19.80
2017-09-25T01:27:11.168Z,20.58
2017-09-25T01:29:39.747Z,28.27
2017-09-25T01:32:09.050Z,15.70
2017-09-25T01:34:37.621Z,21.30
2017-09-25T01:37:06.122Z,21.12
2017-09-25T01:39:34.585Z,17.40
2017-09-25T01:42:02.986Z,17.30
2017-09-25T01:44:31.467Z,18.52
2017-09-25T01:46:59.933Z,23.83
2017-09-25T01:49:28.352Z,16.67
2017-09-25T01:51:57.551Z,17.87
2017-09-25T01:54:26.092Z,13.90
2017-09-25T01:56:54.526Z,17.58
2017-09-25T01:59:23.211Z,13.40
2017-09-25T02:01:51.602Z,16.52
2017-09-25T02:04:20.618Z,19.90
2017-09-25T02:06:49.314Z,18.48
2017-09-25T02:09:17.707Z,16.40
2017-09-25T02:11:46.119Z,17.45
2017-09-25T02:14:14.726Z,15.85
2017-09-25T02:16:43.099Z,19.25
2017-09-25T02:19:11.479Z,15.82
2017-09-25T02:21:40.093Z,17.02
2017-09-25T02:24:08.876Z,15.55
2017-09-25T02:26:37.318Z,20.12
2017-09-25T02:29:05.814Z,16.90
2017-09-25T02:31:34.254Z,18.75
2017-09-25T02:34:03.074Z,14.90
2017-09-25T02:36:32.109Z,15.15
2017-09-25T02:39:00.504Z,16.92
2017-09-25T02:41:28.895Z,15.05
2017-09-25T02:43:57.590Z,20.92
2017-09-25T02:46:26.831Z,17.40
2017-09-25T02:48:55.210Z,16.75
2017-09-25T02:51:23.678Z,17.30
2017-09-25T02:53:52.146Z,24.65
2017-09-25T02:56:20.728Z,15.60
2017-09-25T02:58:49.396Z,14.07
2017-09-25T03:01:19.169Z,17.48
2017-09-25T03:03:49.211Z,17.15
2017-09-25T03:06:18.594Z,16.48
2017-09-25T03:08:47.616Z,17.55
2017-09-25T03:11:18.519Z,16.62
2017-09-25T03:13:47.804Z,16.90
2017-09-25T03:16:17.332Z,17.80
2017-09-25T03:18:46.551Z,13.50
2017-09-25T03:21:17.455Z,12.98
2017-09-25T03:23:46.991Z,12.50
2017-09-25T03:26:16.404Z,13.48
2017-09-25T03:28:44.938Z,26.62
2017-09-25T03:31:13.632Z,17.08
2017-09-25T03:33:42.060Z,16.58
2017-09-25T03:36:11.536Z,16.85
2017-09-25T03:38:40.202Z,16.52
2017-09-25T03:41:08.641Z,16.92
2017-09-25T03:43:37.885Z,16.12
2017-09-25T03:46:06.670Z,16.95
2017-09-25T03:48:35.253Z,19.80
2017-09-25T03:51:03.974Z,16.15
2017-09-25T03:53:32.398Z,17.87
2017-09-25T03:56:00.891Z,19.52
2017-09-25T03:58:29.466Z,16.35
2017-09-25T04:00:58.066Z,23.67
2017-09-25T04:03:26.519Z,14.87
2017-09-25T04:05:55.350Z,13.07
2017-09-25T04:08:25.428Z,18.23
2017-09-25T04:10:53.921Z,16.40
2017-09-25T04:13:22.517Z,13.85
2017-09-25T04:15:51.143Z,15.90
2017-09-25T04:18:20.347Z,13.98
2017-09-25T04:20:49.026Z,20.27
2017-09-25T04:23:18.487Z,18.73
2017-09-25T04:25:47.112Z,18.45
2017-09-25T04:28:16.580Z,19.42
2017-09-25T04:30:45.193Z,24.83
2017-09-25T04:33:14.932Z,17.67
2017-09-25T04:35:43.555Z,21.62
2017-09-25T04:38:12.244Z,22.80
2017-09-25T04:40:40.824Z,17.98
2017-09-25T04:43:09.455Z,15.88
2017-09-25T04:45:37.907Z,16.05
2017-09-25T04:48:06.349Z,15.10
2017-09-25T04:50:34.981Z,16.80
2017-09-25T04:53:04.207Z,18.83
2017-09-25T04:55:32.646Z,12.32
2017-09-25T04:58:02.983Z,12.35
2017-09-25T05:00:32.251Z,16.17
2017-09-25T05:03:02.416Z,32.22
2017-09-25T05:05:30.910Z,22.83
2017-09-25T05:07:59.396Z,16.45
2017-09-25T05:10:27.965Z,17.23
2017-09-25T05:12:56.636Z,20.40
2017-09-25T05:15:26.097Z,14.68
2017-09-25T05:17:54.677Z,16.20
2017-09-25T05:20:23.482Z,15.55
2017-09-25T05:22:51.937Z,15.88
2017-09-25T05:25:20.374Z,14.18
2017-09-25T05:27:49.609Z,11.60
2017-09-25T05:30:18.325Z,11.32
2017-09-25T05:32:46.909Z,13.85
2017-09-25T05:35:16.166Z,11.75
2017-09-25T05:37:44.672Z,12.55
2017-09-25T05:40:13.373Z,9.88
2017-09-25T05:42:42.067Z,11.12
2017-09-25T05:45:10.530Z,14.20
2017-09-25T05:47:38.999Z,11.93
2017-09-25T05:50:07.463Z,11.48
2017-09-25T05:52:35.883Z,11.88
2017-09-25T05:55:04.311Z,16.02
2017-09-25T05:57:32.830Z,8.63
2017-09-25T06:00:01.398Z,13.90
2017-09-25T06:02:30.212Z,22.30
2017-09-25T06:04:58.693Z,27.27
2017-09-25T06:07:27.377Z,8.68
2017-09-25T06:09:56.099Z,7.80
2017-09-25T06:12:25.361Z,7.53
2017-09-25T06:14:53.936Z,12.77
2017-09-25T06:17:23.334Z,9.40
2017-09-25T06:19:52.192Z,7.10
2017-09-25T06:22:20.841Z,7.78
2017-09-25T06:24:50.126Z,10.73
2017-09-25T06:27:20.490Z,12.20
2017-09-25T06:29:49.032Z,11.30
2017-09-25T06:32:18.430Z,14.38
2017-09-25T06:34:47.069Z,11.82
2017-09-25T06:37:23.267Z,8.15
2017-09-25T06:39:51.763Z,12.52
2017-09-25T06:42:20.209Z,10.50
2017-09-25T06:44:48.649Z,8.30
2017-09-25T06:47:18.117Z,14.27
2017-09-25T06:49:46.748Z,16.87
2017-09-25T06:52:15.377Z,12.07
2017-09-25T06:54:44.082Z,11.57
2017-09-25T06:57:12.656Z,12.88
2017-09-25T06:59:41.135Z,8.00
2017-09-25T07:02:09.622Z,8.70
2017-09-25T07:04:38.249Z,12.57
2017-09-25T07:07:06.687Z,10.45
2017-09-25T07:09:35.256Z,12.90
2017-09-25T07:12:03.674Z,8.60
2017-09-25T07:14:32.930Z,15.43
2017-09-25T07:17:01.413Z,17.90
2017-09-25T07:19:29.842Z,10.60
2017-09-25T07:21:59.038Z,17.70
2017-09-25T07:24:28.504Z,14.73
2017-09-25T07:26:56.934Z,13.27
2017-09-25T07:29:25.373Z,12.00
2017-09-25T07:31:53.819Z,21.00
2017-09-25T07:34:22.281Z,16.13
2017-09-25T07:36:50.766Z,13.13
2017-09-25T07:39:19.243Z,16.70
2017-09-25T07:41:47.970Z,23.20
2017-09-25T07:44:16.605Z,17.00
2017-09-25T07:46:45.090Z,18.13
2017-09-25T07:49:13.475Z,17.67
2017-09-25T07:51:42.098Z,25.37
2017-09-25T07:54:11.082Z,20.10
2017-09-25T07:56:39.516Z,14.70
2017-09-25T07:59:08.718Z,18.40
2017-09-25T08:01:37.938Z,27.50
2017-09-25T08:04:06.344Z,20.37
2017-09-25T08:06:34.931Z,21.37
2017-09-25T08:09:04.311Z,22.27
2017-09-25T08:11:32.747Z,26.70
2017-09-25T08:14:02.103Z,25.90
2017-09-25T08:16:30.867Z,20.30
2017-09-25T08:18:59.303Z,22.07
2017-09-25T08:21:27.723Z,19.37
2017-09-25T08:23:56.151Z,17.87
2017-09-25T08:26:24.569Z,21.93
2017-09-25T08:28:52.965Z,20.20
2017-09-25T08:31:22.117Z,16.93
2017-09-25T08:33:50.773Z,16.30
2017-09-25T08:36:19.230Z,22.10
2017-09-25T08:38:47.718Z,15.53
2017-09-25T08:41:16.324Z,21.93
2017-09-25T08:43:45.263Z,14.27
2017-09-25T08:46:13.700Z,11.33
2017-09-25T08:48:42.086Z,14.63
2017-09-25T08:51:11.274Z,19.60
2017-09-25T08:53:40.343Z,15.40
2017-09-25T08:56:08.943Z,13.53
2017-09-25T08:58:37.383Z,13.23
2017-09-25T09:01:05.823Z,17.83
2017-09-25T09:03:35.009Z,9.57
2017-09-25T09:06:03.472Z,8.30
2017-09-25T09:08:50.271Z,8.30
2017-09-25T09:11:19.366Z,8.97
2017-09-25T09:13:47.809Z,6.87
2017-09-25T09:16:17.222Z,5.13
2017-09-25T09:18:46.396Z,10.40
2017-09-25T09:21:14.808Z,6.97
2017-09-25T09:23:43.530Z,14.83
2017-09-25T09:26:11.935Z,13.43
2017-09-25T09:28:40.378Z,8.33
2017-09-25T09:31:08.942Z,9.57
2017-09-25T09:33:37.374Z,10.23
2017-09-25T09:36:06.610Z,11.30
2017-09-25T09:38:35.132Z,12.50
2017-09-25T09:41:03.570Z,8.50
2017-09-25T09:43:32.004Z,15.60
2017-09-25T09:46:00.919Z,13.07
2017-09-25T09:48:29.363Z,9.20
2017-09-25T09:50:57.802Z,8.97
2017-09-25T09:53:26.283Z,8.70
2017-09-25T09:55:54.726Z,18.87
2017-09-25T09:58:23.344Z,8.70
2017-09-25T10:00:51.881Z,8.37
2017-09-25T10:03:20.315Z,7.00
2017-09-25T10:05:49.050Z,18.73
2017-09-25T10:08:17.823Z,8.77
2017-09-25T10:10:46.208Z,9.70
2017-09-25T10:13:14.635Z,9.27
2017-09-25T10:15:43.154Z,11.70
2017-09-25T10:18:11.540Z,6.70
2017-09-25T10:20:40.222Z,5.67
2017-09-25T10:23:08.912Z,13.33
2017-09-25T10:25:38.229Z,13.50
2017-09-25T10:28:06.691Z,13.30
2017-09-25T10:30:35.260Z,9.07
2017-09-25T10:33:03.961Z,4.90
2017-09-25T10:35:32.410Z,9.03
2017-09-25T10:38:01.047Z,9.53
2017-09-25T10:40:29.692Z,6.53
2017-09-25T10:42:58.108Z,6.40
2017-09-25T10:45:26.539Z,6.50
2017-09-25T10:47:55.754Z,6.10
2017-09-25T10:50:24.186Z,5.93
2017-09-25T10:52:54.237Z,6.20
2017-09-25T10:55:22.689Z,7.70
2017-09-25T10:57:52.148Z,5.57
2017-09-25T11:00:20.626Z,7.37
2017-09-25T11:02:49.063Z,6.83
2017-09-25T11:05:17.641Z,13.43
2017-09-25T11:07:46.159Z,15.97
2017-09-25T11:10:14.604Z,8.70
2017-09-25T11:12:44.510Z,6.73
2017-09-25T11:15:13.871Z,7.50
2017-09-25T11:17:42.505Z,6.73
2017-09-25T11:20:10.936Z,9.90
2017-09-25T11:22:39.482Z,11.00
2017-09-25T11:25:07.941Z,5.80
2017-09-25T11:27:37.770Z,16.00
2017-09-25T11:30:06.327Z,14.10
2017-09-25T11:32:35.497Z,9.33
2017-09-25T11:35:04.128Z,12.60
2017-09-25T11:37:32.746Z,18.73
2017-09-25T11:40:01.140Z,14.10
2017-09-25T11:42:29.524Z,12.17
2017-09-25T11:44:57.988Z,13.23
2017-09-25T11:47:26.417Z,11.47
2017-09-25T11:49:55.570Z,13.77
2017-09-25T11:52:23.999Z,13.30
2017-09-25T11:54:53.148Z,15.10
2017-09-25T11:57:21.717Z,10.97
2017-09-25T11:59:50.136Z,10.20
2017-09-25T12:02:18.741Z,8.73
2017-09-25T12:04:47.166Z,10.80
2017-09-25T12:07:15.669Z,9.73
2017-09-25T12:09:44.903Z,9.80
2017-09-25T12:12:13.409Z,15.10
2017-09-25T12:14:42.325Z,18.90
2017-09-25T12:17:10.715Z,13.50
2017-09-25T12:19:39.099Z,14.40
2017-09-25T12:22:07.532Z,13.13
2017-09-25T12:24:36.201Z,8.90
2017-09-25T12:27:04.927Z,12.50
2017-09-25T12:29:33.410Z,14.20
2017-09-25T12:32:02.049Z,10.40
2017-09-25T12:34:30.716Z,10.37
2017-09-25T12:37:00.130Z,15.10
2017-09-25T12:39:29.279Z,10.47
2017-09-25T12:41:57.705Z,24.57
2017-09-25T12:44:26.912Z,11.50
2017-09-25T12:46:56.054Z,12.50
2017-09-25T12:49:24.437Z,10.43
2017-09-25T12:51:52.851Z,12.47
2017-09-25T12:54:22.011Z,13.03
2017-09-25T12:56:50.403Z,18.30
2017-09-25T12:59:20.372Z,12.00
2017-09-25T13:01:48.754Z,10.70
2017-09-25T13:04:17.139Z,14.23
2017-09-25T13:06:45.568Z,15.17
2017-09-25T13:09:13.943Z,26.70
2017-09-25T13:11:43.842Z,15.90
2017-09-25T13:14:12.256Z,12.37
2017-09-25T13:16:41.403Z,13.93
2017-09-25T13:19:09.797Z,14.40
2017-09-25T13:21:38.365Z,15.83
2017-09-25T13:24:06.744Z,36.27
2017-09-25T13:26:35.139Z,20.93
2017-09-25T13:29:03.548Z,19.63
2017-09-25T13:31:32.695Z,12.73
2017-09-25T13:34:01.091Z,18.23
2017-09-25T13:36:29.507Z,12.30
2017-09-25T13:38:58.662Z,18.63
2017-09-25T13:41:27.059Z,16.43
2017-09-25T13:43:55.500Z,25.30
2017-09-25T13:46:23.878Z,18.37
2017-09-25T13:48:52.259Z,23.23
2017-09-25T13:51:20.675Z,22.10
2017-09-25T13:53:49.240Z,17.40
2017-09-25T13:56:17.642Z,18.10
2017-09-25T14:03:53.963Z,17.63
2017-09-25T14:06:22.588Z,27.03
2017-09-25T14:08:51.272Z,27.93
2017-09-25T14:11:19.958Z,21.90
2017-09-25T14:13:48.587Z,24.63
2017-09-25T14:16:17.117Z,20.73
2017-09-25T14:18:45.809Z,18.67
2017-09-25T14:21:14.440Z,24.20
2017-09-25T14:23:42.973Z,24.03
2017-09-25T14:26:11.723Z,24.60
2017-09-25T14:28:40.552Z,19.73
2017-09-25T14:31:09.237Z,30.33
2017-09-25T14:33:38.024Z,27.00
2017-09-25T14:36:06.647Z,20.27
2017-09-25T14:38:36.017Z,24.97
2017-09-25T14:41:04.677Z,27.13
2017-09-25T14:43:33.274Z,20.10
2017-09-25T14:46:01.969Z,32.83
2017-09-25T14:48:32.329Z,24.90
2017-09-25T14:51:01.747Z,30.03
2017-09-25T14:53:30.258Z,22.63
2017-09-25T14:55:59.304Z,19.33
2017-09-25T14:58:27.901Z,19.23
2017-09-25T15:00:56.540Z,24.40
2017-09-25T15:03:25.224Z,24.07
2017-09-25T15:05:53.805Z,23.60
2017-09-25T15:08:22.445Z,19.30
2017-09-25T15:10:51.111Z,21.10
2017-09-25T15:13:20.527Z,13.70
2017-09-25T15:15:49.159Z,33.17
2017-09-25T15:18:17.952Z,20.70
2017-09-25T15:20:46.637Z,48.87
2017-09-25T15:23:15.271Z,19.83
2017-09-25T15:25:43.901Z,20.80
2017-09-25T15:28:12.483Z,19.13
2017-09-25T15:30:41.798Z,19.17
2017-09-25T15:33:10.569Z,14.93
2017-09-25T15:35:39.260Z,20.77
2017-09-25T15:38:08.007Z,21.37
2017-09-25T15:40:36.629Z,25.52
2017-09-25T15:43:05.417Z,18.65
2017-09-25T15:45:34.053Z,18.85
2017-09-25T15:48:02.681Z,19.90
2017-09-25T15:50:31.312Z,26.62
2017-09-25T15:52:59.955Z,24.75
2017-09-25T15:55:28.640Z,18.52
2017-09-25T15:57:57.369Z,16.20
2017-09-25T16:00:26.841Z,17.45
2017-09-25T16:02:55.552Z,18.58
2017-09-25T16:05:25.020Z,20.65
2017-09-25T16:07:53.705Z,21.65
2017-09-25T16:10:22.382Z,23.52
2017-09-25T16:12:51.187Z,22.77
2017-09-25T16:15:20.018Z,21.35
2017-09-25T16:17:48.754Z,19.58
2017-09-25T16:20:17.441Z,32.35
2017-09-25T16:22:46.015Z,17.65
2017-09-25T16:25:14.604Z,23.60
2017-09-25T16:27:44.009Z,27.35
2017-09-25T16:30:12.688Z,17.87
2017-09-25T16:32:42.055Z,20.37
2017-09-25T16:35:10.675Z,22.48
2017-09-25T16:37:39.276Z,19.37
2017-09-25T16:40:08.052Z,22.67
2017-09-25T16:42:36.728Z,20.88
2017-09-25T16:45:05.427Z,24.58
2017-09-25T16:47:34.024Z,25.08
2017-09-25T16:50:02.690Z,20.50
2017-09-25T16:52:31.411Z,23.27
2017-09-25T16:55:00.770Z,23.80
2017-09-25T16:57:29.454Z,26.55
2017-09-25T16:59:58.253Z,32.20
2017-09-25T17:02:26.970Z,32.03
2017-09-25T17:04:56.380Z,27.55
2017-09-25T17:07:26.058Z,28.17
2017-09-25T17:09:54.652Z,33.22
2017-09-25T17:12:23.257Z,35.97
2017-09-25T17:14:52.625Z,31.73
2017-09-25T17:17:21.504Z,32.97
2017-09-25T17:19:50.135Z,29.83
2017-09-25T17:22:18.768Z,32.88
2017-09-25T17:24:47.666Z,33.47
2017-09-25T17:27:16.262Z,33.22
2017-09-25T17:29:44.940Z,32.92
2017-09-25T17:32:13.576Z,41.75
2017-09-25T17:34:42.588Z,42.03
2017-09-25T17:37:11.298Z,37.17
2017-09-25T17:39:40.171Z,34.80
2017-09-25T17:42:08.821Z,32.35
2017-09-25T17:44:37.405Z,36.03
2017-09-25T17:47:06.143Z,30.67
2017-09-25T17:49:34.660Z,40.25
2017-09-25T17:52:04.194Z,37.13
2017-09-25T17:54:33.143Z,35.35
2017-09-25T17:57:03.285Z,38.95
2017-09-25T17:59:32.716Z,31.33
2017-09-25T18:02:01.638Z,39.80
2017-09-25T18:04:30.294Z,41.97
2017-09-25T18:06:58.959Z,35.70
2017-09-25T18:09:27.702Z,41.08
2017-09-25T18:11:56.398Z,51.92
2017-09-25T18:14:24.881Z,40.45
2017-09-25T18:16:53.549Z,41.33
2017-09-25T18:19:22.417Z,46.50
2017-09-25T18:21:51.640Z,36.22
2017-09-25T18:24:20.347Z,42.70
2017-09-25T18:26:49.873Z,50.55
2017-09-25T18:29:18.611Z,37.60
2017-09-25T18:31:55.418Z,42.95
2017-09-25T18:34:24.723Z,45.63
2017-09-25T18:36:55.231Z,123.25
2017-09-25T18:39:23.831Z,130.55
2017-09-25T18:41:53.196Z,135.07
2017-09-25T18:44:21.886Z,140.85
2017-09-25T18:46:50.576Z,91.00
2017-09-25T18:49:19.581Z,91.30
2017-09-25T18:51:49.384Z,107.10
2017-09-25T18:54:18.163Z,130.68
2017-09-25T18:56:46.849Z,115.47
2017-09-25T18:59:16.662Z,56.92
2017-09-25T19:01:45.570Z,71.28
2017-09-25T19:04:14.200Z,48.97
2017-09-25T19:06:42.946Z,85.87
2017-09-25T19:09:11.978Z,50.30
2017-09-25T19:11:41.112Z,60.45
2017-09-25T19:14:11.025Z,60.47
2017-09-25T19:16:39.727Z,55.28
2017-09-25T19:19:09.320Z,83.45
2017-09-25T19:21:38.317Z,62.85
2017-09-25T19:24:08.030Z,55.72
2017-09-25T19:26:36.760Z,55.38
2017-09-25T19:29:05.678Z,49.72
2017-09-25T19:31:34.699Z,43.47
2017-09-25T19:34:03.504Z,45.03
2017-09-25T19:36:33.514Z,55.15
2017-09-25T19:39:03.007Z,53.70
2017-09-25T19:41:31.683Z,43.40
2017-09-25T19:44:01.198Z,44.17
2017-09-25T19:46:30.700Z,48.28
2017-09-25T19:48:59.936Z,50.65
2017-09-25T19:51:28.673Z,78.10
2017-09-25T19:54:03.645Z,79.45
2017-09-25T19:56:43.259Z,45.08
2017-09-25T19:59:12.485Z,57.35
2017-09-25T20:01:41.847Z,40.92
2017-09-25T20:04:11.030Z,36.03
2017-09-25T20:06:40.548Z,38.17
2017-09-25T20:09:10.097Z,34.33
2017-09-25T20:11:40.303Z,37.28
2017-09-25T20:17:15.042Z,40.15
2017-09-25T20:19:44.456Z,44.17
2017-09-25T20:22:15.393Z,42.92
2017-09-25T20:24:46.148Z,36.33
2017-09-25T20:27:16.789Z,35.30
2017-09-25T20:29:46.556Z,32.55
2017-09-25T20:32:16.525Z,28.27
2017-09-25T20:34:46.579Z,39.60
2017-09-25T20:37:16.954Z,30.42
2017-09-25T20:39:46.969Z,40.05
2017-09-25T20:45:23.895Z,47.38
2017-09-25T20:47:56.209Z,39.10
2017-09-25T20:50:26.716Z,43.95
2017-09-25T20:52:57.145Z,43.85
2017-09-25T20:55:27.573Z,32.10
2017-09-25T20:57:57.081Z,37.15
2017-09-25T21:00:27.443Z,35.47
2017-09-25T21:02:58.175Z,35.53
2017-09-25T21:05:28.735Z,35.70
2017-09-25T21:07:58.546Z,39.00
2017-09-25T21:10:28.545Z,38.65
2017-09-25T21:12:58.552Z,30.40
2017-09-25T21:15:29.114Z,32.95
2017-09-25T21:17:59.097Z,37.45
2017-09-25T21:20:29.697Z,37.83
2017-09-25T21:22:59.297Z,34.90
2017-09-25T21:25:29.135Z,33.83
2017-09-25T21:27:59.545Z,35.22
2017-09-25T21:30:28.598Z,35.47
2017-09-25T21:32:58.755Z,40.25
2017-09-25T21:35:28.267Z,42.72
2017-09-25T21:37:57.401Z,34.75
2017-09-25T21:40:26.433Z,37.25
2017-09-25T21:42:55.752Z,30.80
2017-09-25T21:45:24.422Z,40.63
2017-09-25T21:47:53.698Z,30.67
2017-09-25T21:50:24.538Z,39.05
2017-09-25T21:52:53.704Z,34.33
2017-09-25T21:55:22.778Z,36.80
2017-09-25T21:57:52.929Z,32.88
2017-09-25T22:00:23.616Z,34.40
2017-09-25T22:02:53.235Z,31.58
2017-09-25T22:05:23.110Z,34.67
2017-09-25T22:07:52.312Z,34.95
2017-09-25T22:10:21.720Z,42.03
2017-09-25T22:12:50.508Z,35.70
2017-09-25T22:15:19.399Z,40.12
2017-09-25T22:17:49.274Z,31.52
2017-09-25T22:20:18.649Z,48.20
2017-09-25T22:22:48.239Z,30.83
2017-09-25T22:25:19.960Z,32.38
2017-09-25T22:27:48.617Z,42.60
2017-09-25T22:30:17.244Z,36.90
2017-09-25T22:32:46.000Z,31.35
2017-09-25T22:35:14.717Z,39.00
2017-09-25T22:37:43.404Z,36.53
2017-09-25T22:40:12.088Z,32.53
2017-09-25T22:42:41.288Z,46.55
2017-09-25T22:45:10.178Z,38.28
2017-09-25T22:47:38.804Z,36.72
2017-09-25T22:50:08.750Z,38.90
2017-09-25T22:52:37.960Z,38.88
2017-09-25T22:55:08.810Z,35.47
2017-09-25T22:57:38.881Z,41.55
2017-09-25T23:00:09.007Z,39.95
2017-09-25T23:02:38.884Z,40.58
2017-09-25T23:08:19.753Z,30.67
2017-09-25T23:10:53.475Z,30.17
2017-09-25T23:13:22.452Z,42.10
2017-09-25T23:15:55.774Z,31.70
2017-09-25T23:18:28.745Z,31.05
2017-09-25T23:21:00.344Z,38.53
2017-09-25T23:23:35.752Z,37.25
2017-09-25T23:26:08.513Z,33.60
2017-09-25T23:28:38.878Z,36.80
2017-09-25T23:31:13.046Z,41.37
2017-09-25T23:33:48.767Z,37.72
2017-09-25T23:36:18.906Z,35.65
2017-09-25T23:38:52.258Z,44.10
2017-09-25T23:41:24.597Z,38.30
2017-09-25T23:43:59.497Z,42.47
2017-09-25T23:46:29.774Z,40.05
2017-09-25T23:48:59.033Z,37.25
2017-09-25T23:51:27.425Z,35.85
2017-09-25T23:53:55.809Z,37.63
2017-09-25T23:56:24.465Z,38.15
2017-09-25T23:58:52.840Z,36.63
